createdAt,value
2022-08-30T00:01:57.896Z,5.20
2022-08-30T00:06:57.282Z,5.43
2022-08-30T00:11:55.260Z,5.45
2022-08-30T00:16:53.306Z,5.10
2022-08-30T00:21:51.156Z,5.65
2022-08-30T00:26:49.429Z,5.43
2022-08-30T00:31:48.249Z,5.63
2022-08-30T00:36:46.762Z,6.20
2022-08-30T00:41:45.465Z,5.13
2022-08-30T00:46:43.880Z,5.50
2022-08-30T00:51:44.659Z,6.07
2022-08-30T00:56:42.168Z,5.40
2022-08-30T01:01:40.562Z,5.90
2022-08-30T01:06:40.116Z,5.40
2022-08-30T01:11:38.893Z,5.60
2022-08-30T01:16:36.825Z,5.75
2022-08-30T01:21:45.406Z,5.70
2022-08-30T01:26:42.791Z,6.45
2022-08-30T01:31:43.282Z,5.65
2022-08-30T01:36:44.846Z,5.47
2022-08-30T01:41:43.682Z,5.25
2022-08-30T01:46:45.784Z,5.38
2022-08-30T01:51:44.627Z,5.65
2022-08-30T01:56:44.339Z,6.10
2022-08-30T02:01:44.144Z,6.43
2022-08-30T02:06:44.273Z,6.15
2022-08-30T02:11:42.045Z,7.03
2022-08-30T02:16:41.006Z,6.57
2022-08-30T02:21:39.357Z,6.65
2022-08-30T02:26:37.316Z,6.63
2022-08-30T02:31:36.041Z,6.90
2022-08-30T02:36:39.567Z,7.03
2022-08-30T02:41:38.445Z,6.80
2022-08-30T02:46:37.062Z,6.90
2022-08-30T02:51:36.475Z,7.78
2022-08-30T02:56:37.820Z,7.55
2022-08-30T03:01:39.142Z,7.22
2022-08-30T03:06:37.082Z,6.85
2022-08-30T03:11:35.379Z,8.27
2022-08-30T03:16:33.758Z,7.90
2022-08-30T03:21:31.584Z,8.18
2022-08-30T03:26:34.358Z,7.78
2022-08-30T03:31:32.309Z,7.90
2022-08-30T03:36:52.971Z,7.78
2022-08-30T03:41:52.013Z,8.00
2022-08-30T03:46:51.177Z,8.30
2022-08-30T03:51:49.244Z,8.50
2022-08-30T03:56:48.141Z,8.10
2022-08-30T04:01:48.016Z,7.88
2022-08-30T04:06:48.572Z,7.82
2022-08-30T04:11:49.294Z,8.75
2022-08-30T04:16:48.153Z,8.52
2022-08-30T04:21:48.064Z,7.90
2022-08-30T04:26:45.983Z,8.60
2022-08-30T04:31:46.017Z,8.45
2022-08-30T04:36:48.269Z,8.38
2022-08-30T04:41:46.079Z,9.52
2022-08-30T04:46:44.573Z,8.32
2022-08-30T04:51:44.698Z,9.65
2022-08-30T04:56:42.756Z,8.68
2022-08-30T05:01:45.670Z,9.15
2022-08-30T05:06:44.344Z,9.25
2022-08-30T05:11:43.465Z,10.85
2022-08-30T05:16:44.316Z,10.18
2022-08-30T05:21:41.973Z,10.18
2022-08-30T05:26:40.090Z,10.55
2022-08-30T05:31:39.081Z,10.88
2022-08-30T05:36:38.228Z,10.85
2022-08-30T05:41:36.852Z,11.13
2022-08-30T05:46:39.845Z,12.77
2022-08-30T05:51:43.310Z,10.73
2022-08-30T05:56:43.558Z,17.38
2022-08-30T06:01:45.684Z,10.38
2022-08-30T06:06:47.094Z,10.23
2022-08-30T06:11:46.839Z,10.07
2022-08-30T06:16:46.177Z,9.93
2022-08-30T06:21:51.201Z,10.48
2022-08-30T06:26:48.732Z,10.55
2022-08-30T06:31:47.887Z,9.85
2022-08-30T06:36:47.521Z,9.88
2022-08-30T06:41:45.799Z,9.55
2022-08-30T06:47:01.725Z,9.77
2022-08-30T06:52:03.773Z,9.43
2022-08-30T06:57:02.448Z,9.40
2022-08-30T07:02:03.401Z,10.60
2022-08-30T07:07:01.475Z,10.70
2022-08-30T07:12:04.266Z,11.23
2022-08-30T07:17:34.916Z,11.15
2022-08-30T07:22:36.431Z,10.45
2022-08-30T07:27:37.404Z,11.30
2022-08-30T07:32:36.276Z,10.07
2022-08-30T07:37:34.564Z,11.82
2022-08-30T07:42:34.576Z,10.15
2022-08-30T07:47:33.193Z,10.40
2022-08-30T07:52:32.084Z,10.05
2022-08-30T07:57:35.500Z,11.95
2022-08-30T08:02:34.207Z,11.68
2022-08-30T08:07:35.339Z,10.93
2022-08-30T08:12:35.028Z,12.13
2022-08-30T08:17:34.542Z,11.55
2022-08-30T08:22:34.862Z,12.13
2022-08-30T08:27:35.252Z,11.23
2022-08-30T08:32:35.324Z,12.98
2022-08-30T08:37:35.238Z,11.75
2022-08-30T08:43:18.670Z,11.90
2022-08-30T08:48:19.527Z,14.38
2022-08-30T08:53:47.018Z,10.27
2022-08-30T08:58:51.609Z,9.38
2022-08-30T09:03:51.356Z,9.07
2022-08-30T09:08:52.674Z,8.60
2022-08-30T09:13:54.899Z,8.98
2022-08-30T09:18:55.852Z,8.07
2022-08-30T09:24:04.476Z,7.88
2022-08-30T09:29:06.057Z,7.35
2022-08-30T09:34:16.445Z,7.65
2022-08-30T09:39:34.662Z,7.82
2022-08-30T09:44:37.801Z,7.68
2022-08-30T09:49:41.509Z,8.20
2022-08-30T09:54:51.163Z,7.72
2022-08-30T10:00:01.197Z,8.38
2022-08-30T10:05:35.147Z,7.03
2022-08-30T10:10:53.525Z,7.53
2022-08-30T10:16:20.127Z,7.63
2022-08-30T10:21:41.549Z,6.75
2022-08-30T10:27:07.582Z,6.90
2022-08-30T10:32:33.398Z,6.75
2022-08-30T10:37:33.113Z,6.55
2022-08-30T10:42:37.957Z,6.10
2022-08-30T10:48:01.621Z,6.43
2022-08-30T10:53:26.111Z,6.43
2022-08-30T10:58:25.281Z,6.40
2022-08-30T11:03:27.132Z,6.20
2022-08-30T11:08:47.508Z,6.33
2022-08-30T11:13:47.073Z,6.13
2022-08-30T11:19:35.112Z,6.22
2022-08-30T11:25:00.006Z,5.68
2022-08-30T11:29:58.876Z,6.93
2022-08-30T11:34:59.577Z,6.03
2022-08-30T11:40:04.254Z,5.65
2022-08-30T11:45:26.805Z,5.18
2022-08-30T11:50:48.202Z,5.55
2022-08-30T11:56:21.442Z,5.55
2022-08-30T12:01:50.106Z,6.15
2022-08-30T12:07:00.557Z,6.50
2022-08-30T12:12:07.120Z,5.15
2022-08-30T12:18:08.481Z,5.47
2022-08-30T12:23:32.443Z,6.55
2022-08-30T12:28:32.467Z,6.45
2022-08-30T12:33:41.315Z,4.80
2022-08-30T12:38:42.891Z,6.07
2022-08-30T12:43:51.424Z,6.25
2022-08-30T12:48:51.896Z,6.20
2022-08-30T12:53:53.280Z,6.15
2022-08-30T12:58:58.218Z,7.10
2022-08-30T13:04:13.936Z,6.57
2022-08-30T13:09:32.461Z,5.97
2022-08-30T13:14:49.816Z,6.13
2022-08-30T13:20:00.157Z,6.28
2022-08-30T13:25:02.446Z,7.93
2022-08-30T13:30:21.244Z,7.65
2022-08-30T13:35:19.255Z,7.18
2022-08-30T13:40:19.938Z,6.60
2022-08-30T13:50:45.496Z,5.85
2022-08-30T13:55:44.577Z,5.32
2022-08-30T14:00:43.751Z,4.70
2022-08-30T14:05:49.514Z,4.18
2022-08-30T14:10:53.261Z,5.45
2022-08-30T14:16:26.641Z,4.88
2022-08-30T14:21:14.160Z,5.28
2022-08-30T14:26:17.307Z,4.90
2022-08-30T14:31:16.520Z,4.85
2022-08-30T14:36:18.494Z,4.78
2022-08-30T14:41:17.885Z,5.20
2022-08-30T14:46:16.976Z,5.45
2022-08-30T14:51:22.262Z,5.75
2022-08-30T14:56:24.920Z,6.63
2022-08-30T15:01:24.500Z,5.65
2022-08-30T15:06:23.811Z,5.65
2022-08-30T15:11:26.928Z,5.95
2022-08-30T15:16:32.261Z,5.13
2022-08-30T15:21:44.144Z,5.05
2022-08-30T15:26:44.305Z,5.33
2022-08-30T15:31:49.908Z,5.35
2022-08-30T15:36:49.782Z,5.72
2022-08-30T15:41:57.305Z,9.13
2022-08-30T15:47:01.866Z,7.30
2022-08-30T15:52:05.820Z,5.57
2022-08-30T15:57:07.500Z,5.43
2022-08-30T16:02:07.275Z,5.68
2022-08-30T16:07:07.603Z,5.35
2022-08-30T16:12:10.090Z,5.07
2022-08-30T16:17:08.851Z,7.20
2022-08-30T16:22:09.663Z,5.20
2022-08-30T16:27:11.924Z,17.80
2022-08-30T16:32:13.802Z,8.57
2022-08-30T16:37:13.452Z,11.18
2022-08-30T16:42:11.791Z,10.73
2022-08-30T16:47:13.305Z,7.10
2022-08-30T16:52:16.227Z,6.30
2022-08-30T16:57:16.716Z,6.85
2022-08-30T17:02:15.431Z,5.70
2022-08-30T17:07:19.635Z,11.40
2022-08-30T17:12:28.349Z,15.52
2022-08-30T17:17:27.483Z,9.07
2022-08-30T17:22:35.048Z,8.65
2022-08-30T17:27:34.643Z,11.77
2022-08-30T17:32:36.188Z,7.10
2022-08-30T17:37:34.976Z,6.38
2022-08-30T17:42:36.315Z,6.50
2022-08-30T17:47:44.568Z,7.70
2022-08-30T17:52:45.706Z,6.53
2022-08-30T17:57:44.467Z,6.43
2022-08-30T18:02:46.167Z,6.93
2022-08-30T18:07:44.613Z,7.13
2022-08-30T18:12:45.195Z,6.15
2022-08-30T18:17:45.132Z,7.38
2022-08-30T18:22:48.274Z,7.70
2022-08-30T18:27:50.259Z,6.80
2022-08-30T18:33:08.550Z,6.68
2022-08-30T18:38:08.613Z,6.47
2022-08-30T18:43:10.342Z,6.05
2022-08-30T18:48:18.853Z,5.00
2022-08-30T18:53:28.497Z,6.05
2022-08-30T18:58:34.542Z,5.70
2022-08-30T19:03:34.167Z,6.60
2022-08-30T19:08:53.369Z,5.45
2022-08-30T19:14:11.529Z,6.30
2022-08-30T19:19:16.889Z,5.63
2022-08-30T19:24:29.690Z,4.90
2022-08-30T19:29:30.751Z,5.07
2022-08-30T19:34:38.583Z,5.47
2022-08-30T19:39:39.425Z,5.75
2022-08-30T19:44:42.037Z,4.95
2022-08-30T19:50:28.897Z,5.20
2022-08-30T19:55:34.766Z,5.75
2022-08-30T20:01:10.549Z,5.03
2022-08-30T20:06:04.035Z,5.15
2022-08-30T20:11:04.833Z,5.65
2022-08-30T20:16:06.714Z,6.13
2022-08-30T20:21:13.234Z,6.43
2022-08-30T20:37:57.871Z,5.25
2022-08-30T20:50:02.478Z,4.97
2022-08-30T20:55:08.003Z,5.72
2022-08-30T21:00:22.501Z,5.55
2022-08-30T21:05:41.229Z,5.00
2022-08-30T21:17:05.998Z,5.82
2022-08-30T21:22:11.374Z,6.10
2022-08-30T21:27:10.313Z,5.63
2022-08-30T21:32:15.699Z,6.63
2022-08-30T21:37:19.894Z,5.83
2022-08-30T21:47:51.221Z,5.20
2022-08-30T21:52:50.102Z,5.75
2022-08-30T21:57:59.882Z,5.60
2022-08-30T22:03:41.285Z,5.38
2022-08-30T22:08:42.234Z,5.40
2022-08-30T22:13:54.680Z,5.85
2022-08-30T22:19:05.243Z,5.53
2022-08-30T22:24:05.371Z,4.60
2022-08-30T22:29:03.620Z,4.75
2022-08-30T22:34:05.710Z,5.07
2022-08-30T22:39:07.617Z,4.77
2022-08-30T22:44:06.649Z,4.57
2022-08-30T22:49:07.295Z,4.75
2022-08-30T22:54:06.796Z,4.18
2022-08-30T22:59:06.384Z,4.55
2022-08-30T23:04:08.828Z,4.40
2022-08-30T23:09:07.705Z,4.22
2022-08-30T23:14:08.331Z,5.22
2022-08-30T23:19:07.322Z,4.82
2022-08-30T23:24:25.098Z,4.95
2022-08-30T23:29:42.421Z,4.63
2022-08-30T23:35:00.336Z,4.90
2022-08-30T23:40:19.006Z,4.75
2022-08-30T23:45:37.536Z,5.43
2022-08-30T23:50:56.355Z,5.03
2022-08-30T23:56:15.433Z,4.40
